Burnaby, Canada
Current Conditions -  °F | °C
As of 2:00 PM on Friday 28 Nov 2014 (Local Time) from CYVR Reporting Station
Scattered Clouds Scattered Clouds  
Wind Chill: 34°   Ceiling: Unl
Heat Index: 43°   Visibility: 30mi
Dew Point: 34°   Wind: 20mph
Humidity: 70%   Direction: 290°WNW
Pressure: 29.47"   Gusts: NA
Location:  49.24°N, 122.97°W
Report Text: CYVR 282200Z 29017KT 30SM SCT240 06/01 A2947 RMK CC3 SLP980
Loading
Personal Weather Stations






























Interactive Weather Map New forecast layout! Learn more

10-Day Weather Forecast

Advertisements
Track Severe Weather on mobile